createdAt,value
2022-09-30T00:02:41.164Z,97504.19
2022-09-30T00:09:24.037Z,97500.83
2022-09-30T00:16:06.905Z,97495.54
2022-09-30T00:22:49.538Z,97488.76
2022-09-30T00:29:32.101Z,97482.54
2022-09-30T00:36:14.511Z,97492.14
2022-09-30T00:42:40.218Z,97507.40
2022-09-30T00:49:23.091Z,97516.63
2022-09-30T00:56:08.443Z,97518.34
2022-09-30T01:02:51.378Z,97523.21
2022-09-30T01:09:16.566Z,97516.67
2022-09-30T01:15:59.168Z,97509.50
2022-09-30T01:22:44.899Z,97510.70
2022-09-30T01:29:48.598Z,97518.81
2022-09-30T01:36:49.196Z,97529.42
2022-09-30T01:43:46.467Z,97523.52
2022-09-30T01:50:35.121Z,97527.49
2022-09-30T01:57:23.253Z,97525.30
2022-09-30T02:03:45.381Z,97526.56
2022-09-30T02:10:36.730Z,97524.77
2022-09-30T02:17:19.111Z,97530.42
2022-09-30T02:24:03.959Z,97526.60
2022-09-30T02:30:46.987Z,97530.41
2022-09-30T02:37:31.934Z,97535.75
2022-09-30T02:44:13.935Z,97528.49
2022-09-30T02:50:57.960Z,97535.85
2022-09-30T02:57:23.227Z,97532.58
2022-09-30T03:04:08.513Z,97539.45
2022-09-30T03:10:54.083Z,97543.23
2022-09-30T03:17:48.964Z,97538.52
2022-09-30T03:45:16.642Z,97557.55
2022-09-30T03:52:00.029Z,97562.70
2022-09-30T03:58:56.736Z,97563.39
2022-09-30T04:05:42.269Z,97563.07
2022-09-30T04:12:25.323Z,97567.77
2022-09-30T04:19:07.417Z,97566.10
2022-09-30T04:25:50.396Z,97559.04
2022-09-30T04:32:32.656Z,97562.89
2022-09-30T04:38:42.742Z,97561.52
2022-09-30T04:45:25.057Z,97576.43
2022-09-30T04:52:07.297Z,97582.37
2022-09-30T04:58:49.502Z,97591.51
2022-09-30T05:05:31.784Z,97591.91
2022-09-30T05:12:14.394Z,97585.03
2022-09-30T05:18:37.607Z,97588.02
2022-09-30T05:25:20.496Z,97597.69
2022-09-30T05:32:03.483Z,97599.19
2022-09-30T05:38:46.144Z,97602.58
2022-09-30T05:45:29.495Z,97608.33
2022-09-30T05:52:11.567Z,97614.46
2022-09-30T05:58:54.147Z,97615.23
2022-09-30T06:05:36.781Z,97616.10
2022-09-30T06:12:19.889Z,97617.73
2022-09-30T06:19:02.537Z,97619.88
2022-09-30T06:25:45.221Z,97632.09
2022-09-30T06:32:27.747Z,97646.86
2022-09-30T06:39:15.118Z,97651.16
2022-09-30T06:46:11.212Z,97659.16
2022-09-30T06:52:57.509Z,97664.39
2022-09-30T06:59:39.572Z,97674.17
2022-09-30T07:05:23.785Z,97672.42
2022-09-30T07:11:47.390Z,97674.33
2022-09-30T07:17:30.753Z,97668.16
2022-09-30T07:23:34.497Z,97663.02
2022-09-30T07:29:17.585Z,97663.22
2022-09-30T07:35:07.887Z,97667.59
2022-09-30T07:40:31.491Z,97674.63
2022-09-30T07:45:56.485Z,97677.06
2022-09-30T07:51:40.910Z,97678.52
2022-09-30T07:57:10.183Z,97686.24
2022-09-30T08:02:52.366Z,97696.48
2022-09-30T08:08:14.203Z,97692.92
2022-09-30T08:13:36.115Z,97694.57
2022-09-30T08:19:01.744Z,97696.92
2022-09-30T08:24:24.908Z,97704.34
2022-09-30T08:29:55.913Z,97710.14
2022-09-30T08:35:19.179Z,97717.80
2022-09-30T08:41:09.407Z,97722.10
2022-09-30T08:47:49.509Z,97724.56
2022-09-30T08:54:00.191Z,97726.79
2022-09-30T09:00:50.075Z,97731.29
2022-09-30T09:45:04.774Z,97740.04
2022-09-30T10:59:31.840Z,97789.00
2022-09-30T11:23:54.962Z,97799.27
2022-09-30T11:36:16.123Z,97809.67
2022-09-30T12:00:53.767Z,97830.23
2022-09-30T12:07:58.755Z,97826.14
2022-09-30T15:28:11.303Z,97945.85
2022-09-30T16:03:55.475Z,97973.80
2022-09-30T16:09:51.424Z,97977.48
2022-09-30T16:15:34.338Z,97977.67
2022-09-30T16:21:22.472Z,97974.27
2022-09-30T16:46:49.939Z,97996.74
2022-09-30T17:05:11.301Z,98004.64
2022-09-30T17:29:09.188Z,98009.04
2022-09-30T17:47:14.875Z,98035.08
2022-09-30T17:54:01.948Z,98040.99
2022-09-30T18:00:45.584Z,98047.86
2022-09-30T18:07:29.433Z,98056.92
2022-09-30T18:13:12.808Z,98060.39
2022-09-30T18:18:56.420Z,98062.09
2022-09-30T18:25:40.989Z,98068.44
2022-09-30T18:32:03.413Z,98086.52
2022-09-30T18:38:06.506Z,98093.73
2022-09-30T18:44:11.200Z,98094.67
2022-09-30T18:50:50.074Z,98090.35
2022-09-30T18:57:15.790Z,98086.50
2022-09-30T19:03:38.333Z,98093.27
2022-09-30T19:09:57.213Z,98095.80
2022-09-30T19:15:46.694Z,98099.21
2022-09-30T19:21:49.057Z,98098.00
2022-09-30T19:28:14.900Z,98084.56
2022-09-30T19:35:06.337Z,98077.16
2022-09-30T19:42:04.103Z,98077.38
2022-09-30T19:49:00.726Z,98074.31
2022-09-30T19:55:50.603Z,98068.63
2022-09-30T20:02:33.582Z,98084.23
2022-09-30T20:09:10.778Z,98089.50
2022-09-30T20:15:20.857Z,98096.81
2022-09-30T20:22:02.971Z,98101.11
2022-09-30T20:28:26.186Z,98101.35
2022-09-30T20:35:08.244Z,98099.68
2022-09-30T20:41:50.937Z,98081.89
2022-09-30T20:48:33.827Z,98079.86
2022-09-30T20:55:00.778Z,98078.55
2022-09-30T21:00:48.459Z,98076.27
2022-09-30T21:07:13.214Z,98087.91
2022-09-30T21:13:56.426Z,98091.90
2022-09-30T21:19:38.951Z,98085.85
2022-09-30T21:25:01.428Z,98081.81
2022-09-30T21:30:23.316Z,98082.59
2022-09-30T21:36:10.906Z,98077.02
2022-09-30T21:49:25.765Z,98084.41
2022-09-30T21:55:12.893Z,98090.58
2022-09-30T22:00:40.470Z,98090.73
2022-09-30T22:06:47.693Z,98086.37
2022-09-30T22:13:11.123Z,98082.61
2022-09-30T22:20:00.931Z,98076.73
2022-09-30T22:26:34.742Z,98068.19
2022-09-30T22:32:17.893Z,98072.56
2022-09-30T22:39:01.185Z,98069.91
2022-09-30T22:45:44.020Z,98071.95
2022-09-30T22:52:26.982Z,98077.20
2022-09-30T22:59:09.680Z,98073.63
2022-09-30T23:05:52.457Z,98078.75
2022-09-30T23:12:35.330Z,98084.25
2022-09-30T23:19:18.112Z,98081.92
2022-09-30T23:26:00.999Z,98087.91
2022-09-30T23:32:44.042Z,98090.02
2022-09-30T23:39:26.387Z,98085.34
2022-09-30T23:46:09.499Z,98082.95
2022-09-30T23:52:52.314Z,98076.27
2022-09-30T23:59:35.301Z,98080.73
